createdAt,value
2022-09-25T00:01:16.571Z,67.62
2022-09-25T00:03:44.168Z,67.41
2022-09-25T00:06:20.110Z,69.98
2022-09-25T00:08:47.774Z,67.99
2022-09-25T00:11:18.531Z,69.03
2022-09-25T00:13:47.111Z,67.95
2022-09-25T00:16:18.342Z,69.76
2022-09-25T00:19:04.756Z,67.99
2022-09-25T00:21:33.446Z,68.75
2022-09-25T00:24:03.575Z,69.10
2022-09-25T00:26:34.317Z,69.20
2022-09-25T00:29:02.542Z,68.56
2022-09-25T00:31:31.160Z,68.95
2022-09-25T00:34:01.549Z,68.95
2022-09-25T00:36:30.423Z,67.26
2022-09-25T00:38:58.607Z,67.49
2022-09-25T00:41:27.668Z,68.57
2022-09-25T00:43:57.664Z,68.33
2022-09-25T00:46:40.972Z,70.20
2022-09-25T00:49:15.466Z,70.15
2022-09-25T00:51:46.276Z,68.02
2022-09-25T00:54:36.190Z,69.83
2022-09-25T00:57:07.937Z,70.07
2022-09-25T00:59:41.909Z,71.02
2022-09-25T01:02:14.479Z,69.85
2022-09-25T01:04:46.458Z,68.94
2022-09-25T01:07:15.111Z,68.42
2022-09-25T01:09:42.691Z,69.37
2022-09-25T01:12:10.117Z,68.71
2022-09-25T01:14:38.718Z,68.33
2022-09-25T01:17:41.562Z,70.94
2022-09-25T01:20:36.711Z,71.75
2022-09-25T01:23:20.841Z,71.87
2022-09-25T01:25:48.215Z,68.69
2022-09-25T01:28:58.822Z,70.02
2022-09-25T01:31:39.076Z,70.98
2022-09-25T01:34:20.689Z,70.48
2022-09-25T01:37:10.382Z,68.42
2022-09-25T01:39:41.958Z,70.23
2022-09-25T01:42:22.118Z,70.64
2022-09-25T01:45:01.804Z,70.15
2022-09-25T01:47:38.848Z,69.33
2022-09-25T01:50:16.467Z,70.38
2022-09-25T01:52:49.871Z,71.47
2022-09-25T01:55:24.611Z,71.01
2022-09-25T01:58:03.562Z,70.08
2022-09-25T02:00:32.875Z,67.84
2022-09-25T02:03:16.329Z,72.72
2022-09-25T02:05:52.428Z,72.44
2022-09-25T02:08:26.378Z,70.61
2022-09-25T02:11:00.587Z,71.36
2022-09-25T02:13:37.793Z,73.24
2022-09-25T02:16:16.562Z,73.12
2022-09-25T02:19:03.359Z,71.08
2022-09-25T02:21:49.243Z,71.56
2022-09-25T02:24:41.939Z,71.79
2022-09-25T02:27:09.490Z,69.29
2022-09-25T02:29:37.084Z,68.44
2022-09-25T02:32:08.839Z,70.36
2022-09-25T02:34:37.135Z,69.06
2022-09-25T02:37:14.485Z,71.28
2022-09-25T02:39:44.010Z,70.17
2022-09-25T02:42:38.221Z,72.22
2022-09-25T02:45:39.451Z,70.86
2022-09-25T02:48:25.716Z,69.08
2022-09-25T02:51:20.862Z,71.40
2022-09-25T02:53:52.952Z,69.52
2022-09-25T02:56:38.704Z,70.53
2022-09-25T02:59:18.987Z,69.41
2022-09-25T03:01:47.611Z,69.20
2022-09-25T03:04:17.999Z,71.07
2022-09-25T03:06:46.631Z,68.67
2022-09-25T03:09:17.880Z,71.21
2022-09-25T03:11:46.152Z,70.64
2022-09-25T03:14:13.775Z,69.64
2022-09-25T03:16:50.512Z,72.93
2022-09-25T03:19:21.677Z,70.77
2022-09-25T03:21:50.184Z,69.37
2022-09-25T03:24:17.908Z,68.32
2022-09-25T03:26:45.861Z,68.62
2022-09-25T03:29:15.118Z,68.64
2022-09-25T03:31:42.905Z,68.80
2022-09-25T03:34:11.595Z,68.39
2022-09-25T03:36:39.662Z,69.23
2022-09-25T03:39:08.045Z,68.67
2022-09-25T03:41:35.635Z,68.08
2022-09-25T03:44:04.352Z,68.54
2022-09-25T03:46:34.544Z,69.66
2022-09-25T03:49:02.942Z,67.99
2022-09-25T03:51:32.560Z,70.42
2022-09-25T03:54:00.070Z,68.60
2022-09-25T03:56:30.053Z,69.51
2022-09-25T03:58:58.232Z,68.83
2022-09-25T04:01:26.996Z,69.61
2022-09-25T04:03:54.860Z,67.95
2022-09-25T04:06:26.927Z,70.44
2022-09-25T04:08:55.439Z,70.19
2022-09-25T04:11:25.398Z,69.90
2022-09-25T04:13:53.103Z,68.82
2022-09-25T04:16:21.478Z,69.65
2022-09-25T04:18:49.801Z,70.27
2022-09-25T04:21:17.303Z,68.39
2022-09-25T04:24:04.747Z,70.08
2022-09-25T04:26:32.657Z,70.97
2022-09-25T04:29:01.746Z,70.17
2022-09-25T04:31:29.711Z,70.05
2022-09-25T04:33:57.158Z,68.68
2022-09-25T04:36:24.684Z,68.64
2022-09-25T04:38:52.123Z,70.04
2022-09-25T04:41:20.314Z,69.75
2022-09-25T04:43:48.319Z,69.47
2022-09-25T04:46:21.357Z,68.39
2022-09-25T04:48:50.543Z,69.18
2022-09-25T04:51:18.214Z,69.48
2022-09-25T04:53:46.389Z,68.58
2022-09-25T04:56:15.922Z,66.57
2022-09-25T04:58:49.776Z,69.55
2022-09-25T05:01:20.670Z,67.43
2022-09-25T05:03:50.586Z,68.11
2022-09-25T05:06:18.228Z,67.53
2022-09-25T05:08:48.132Z,67.28
2022-09-25T05:11:16.339Z,67.40
2022-09-25T05:13:44.139Z,67.64
2022-09-25T05:16:11.659Z,68.54
2022-09-25T05:18:39.113Z,69.16
2022-09-25T05:21:06.648Z,68.74
2022-09-25T05:23:34.151Z,69.67
2022-09-25T05:26:02.829Z,71.08
2022-09-25T05:28:33.956Z,69.56
2022-09-25T05:31:05.844Z,68.59
2022-09-25T05:33:34.764Z,69.48
2022-09-25T05:36:04.063Z,70.96
2022-09-25T05:38:36.236Z,68.95
2022-09-25T05:41:09.105Z,69.21
2022-09-25T05:43:41.991Z,71.81
2022-09-25T05:46:11.087Z,68.62
2022-09-25T05:48:38.930Z,69.80
2022-09-25T05:51:06.902Z,67.99
2022-09-25T05:53:34.564Z,69.16
2022-09-25T05:56:03.827Z,67.86
2022-09-25T05:58:33.786Z,68.42
2022-09-25T06:01:06.389Z,68.28
2022-09-25T06:03:33.941Z,67.06
2022-09-25T06:06:02.336Z,66.64
2022-09-25T06:08:33.528Z,67.62
2022-09-25T06:11:02.092Z,67.88
2022-09-25T06:13:32.281Z,68.66
2022-09-25T06:15:59.847Z,67.50
2022-09-25T06:18:28.112Z,66.25
2022-09-25T06:21:05.020Z,66.98
2022-09-25T06:23:32.618Z,66.08
2022-09-25T06:26:04.287Z,66.64
2022-09-25T06:28:32.323Z,66.60
2022-09-25T06:31:04.344Z,67.28
2022-09-25T06:33:32.598Z,66.44
2022-09-25T06:36:00.932Z,63.86
2022-09-25T06:38:29.104Z,64.63
2022-09-25T06:41:00.124Z,65.40
2022-09-25T06:43:28.894Z,64.49
2022-09-25T06:46:00.462Z,65.49
2022-09-25T06:48:28.033Z,63.32
2022-09-25T06:50:57.342Z,65.01
2022-09-25T06:53:26.100Z,64.53
2022-09-25T06:55:57.390Z,65.01
2022-09-25T06:58:27.098Z,63.61
2022-09-25T07:00:56.082Z,62.78
2022-09-25T07:03:42.851Z,64.44
2022-09-25T07:06:13.312Z,63.05
2022-09-25T07:08:41.151Z,62.10
2022-09-25T07:11:08.625Z,62.13
2022-09-25T07:13:37.065Z,63.05
2022-09-25T07:16:07.368Z,62.65
2022-09-25T07:18:35.483Z,61.99
2022-09-25T07:21:12.186Z,60.93
2022-09-25T07:23:39.964Z,60.77
2022-09-25T07:26:35.645Z,62.55
2022-09-25T07:29:06.817Z,61.53
2022-09-25T07:31:35.453Z,61.16
2022-09-25T07:34:09.594Z,60.61
2022-09-25T07:36:41.511Z,59.87
2022-09-25T07:39:09.413Z,60.25
2022-09-25T07:41:37.884Z,60.72
2022-09-25T07:44:27.187Z,59.46
2022-09-25T07:46:53.278Z,59.89
2022-09-25T07:49:20.665Z,59.46
2022-09-25T07:51:48.053Z,60.76
2022-09-25T07:54:15.557Z,60.39
2022-09-25T07:56:42.964Z,60.86
2022-09-25T07:59:10.559Z,62.03
2022-09-25T08:01:43.285Z,63.00
2022-09-25T08:04:12.446Z,60.97
2022-09-25T08:06:39.957Z,60.75
2022-09-25T08:09:10.644Z,60.74
2022-09-25T08:11:38.712Z,61.32
2022-09-25T08:14:06.207Z,60.81
2022-09-25T08:16:33.632Z,61.17
2022-09-25T08:19:01.004Z,61.21
2022-09-25T08:21:28.501Z,61.29
2022-09-25T08:23:56.740Z,60.37
2022-09-25T08:26:24.263Z,61.45
2022-09-25T08:28:52.316Z,60.64
2022-09-25T08:31:20.235Z,60.59
2022-09-25T08:33:49.471Z,60.79
2022-09-25T08:36:18.326Z,61.28
2022-09-25T08:38:45.998Z,61.22
2022-09-25T08:41:31.444Z,60.94
2022-09-25T08:44:12.932Z,61.48
2022-09-25T08:47:04.808Z,61.32
2022-09-25T08:49:38.377Z,62.89
2022-09-25T08:52:13.058Z,61.81
2022-09-25T08:54:43.412Z,60.64
2022-09-25T08:57:27.715Z,62.30
2022-09-25T09:00:02.270Z,61.97
2022-09-25T09:02:38.858Z,62.46
2022-09-25T09:05:16.661Z,62.54
2022-09-25T09:07:47.087Z,61.76
2022-09-25T09:10:23.321Z,61.71
2022-09-25T09:13:02.073Z,63.50
2022-09-25T09:15:39.401Z,60.41
2022-09-25T09:18:17.612Z,60.37
2022-09-25T09:21:07.127Z,60.71
2022-09-25T09:23:48.174Z,61.11
2022-09-25T09:26:33.833Z,61.01
2022-09-25T09:29:19.382Z,62.05
2022-09-25T09:32:14.168Z,62.02
2022-09-25T09:35:07.739Z,59.81
2022-09-25T09:37:41.460Z,59.35
2022-09-25T09:40:27.533Z,58.16
2022-09-25T09:43:31.609Z,59.91
2022-09-25T09:46:08.211Z,58.90
2022-09-25T09:48:49.213Z,59.15
2022-09-25T09:51:22.618Z,59.30
2022-09-25T09:54:07.781Z,61.05
2022-09-25T09:56:36.174Z,59.02
2022-09-25T09:59:25.050Z,60.98
2022-09-25T10:02:10.796Z,60.42
2022-09-25T10:04:41.563Z,60.22
2022-09-25T10:07:17.072Z,61.31
2022-09-25T10:09:45.077Z,60.46
2022-09-25T10:12:34.094Z,61.12
2022-09-25T10:15:06.594Z,61.21
2022-09-25T10:17:38.225Z,60.58
2022-09-25T10:20:20.971Z,61.56
2022-09-25T10:22:53.769Z,62.71
2022-09-25T10:25:37.451Z,63.11
2022-09-25T10:28:27.692Z,62.30
2022-09-25T10:30:57.294Z,62.06
2022-09-25T10:33:30.945Z,62.79
2022-09-25T10:35:59.084Z,60.66
2022-09-25T10:38:39.105Z,61.11
2022-09-25T10:41:13.972Z,60.31
2022-09-25T10:44:19.140Z,59.32
2022-09-25T10:47:05.191Z,58.91
2022-09-25T10:50:01.627Z,58.66
2022-09-25T10:52:30.279Z,58.13
2022-09-25T10:55:28.308Z,59.26
2022-09-25T10:58:10.999Z,60.75
2022-09-25T11:00:47.267Z,61.12
2022-09-25T11:03:22.060Z,67.14
2022-09-25T11:06:00.747Z,71.61
2022-09-25T11:08:33.116Z,72.97
2022-09-25T11:11:03.283Z,67.71
2022-09-25T11:13:38.210Z,65.64
2022-09-25T11:16:11.389Z,64.82
2022-09-25T11:18:47.640Z,63.19
2022-09-25T11:21:47.530Z,63.56
2022-09-25T11:25:01.500Z,63.74
2022-09-25T11:27:40.589Z,62.06
2022-09-25T11:30:12.593Z,60.40
2022-09-25T11:32:50.220Z,59.69
2022-09-25T11:35:39.194Z,59.22
2022-09-25T11:38:58.349Z,59.68
2022-09-25T11:41:31.769Z,59.85
2022-09-25T11:44:17.472Z,59.64
2022-09-25T11:47:11.016Z,58.81
2022-09-25T11:49:41.305Z,56.71
2022-09-25T11:52:11.627Z,56.23
2022-09-25T11:54:57.642Z,55.86
2022-09-25T11:58:05.502Z,57.20
2022-09-25T12:01:10.346Z,56.51
2022-09-25T12:03:51.420Z,55.21
2022-09-25T12:06:30.497Z,54.83
2022-09-25T12:09:31.204Z,55.42
2022-09-25T12:12:15.828Z,54.62
2022-09-25T12:15:10.152Z,54.02
2022-09-25T12:17:56.652Z,55.71
2022-09-25T12:20:31.391Z,53.90
2022-09-25T12:23:04.809Z,54.30
2022-09-25T12:25:33.457Z,53.49
2022-09-25T12:28:08.389Z,53.60
2022-09-25T12:30:48.593Z,53.51
2022-09-25T12:33:36.113Z,53.28
2022-09-25T12:36:12.489Z,53.38
2022-09-25T12:38:52.295Z,53.88
2022-09-25T12:41:27.405Z,55.56
2022-09-25T12:44:04.665Z,54.48
2022-09-25T12:46:42.803Z,53.85
2022-09-25T12:49:44.137Z,53.45
2022-09-25T12:52:24.942Z,53.83
2022-09-25T12:55:06.501Z,52.98
2022-09-25T12:57:33.857Z,53.11
2022-09-25T13:00:17.983Z,52.56
2022-09-25T13:02:49.153Z,52.90
2022-09-25T13:05:27.570Z,53.22
2022-09-25T13:08:04.171Z,52.00
2022-09-25T13:10:43.883Z,53.35
2022-09-25T13:13:21.359Z,53.10
2022-09-25T13:15:52.584Z,53.53
2022-09-25T13:18:25.229Z,51.93
2022-09-25T13:20:57.981Z,53.06
2022-09-25T13:23:36.276Z,52.56
2022-09-25T13:26:25.380Z,53.18
2022-09-25T13:28:58.034Z,52.54
2022-09-25T13:31:31.154Z,52.51
2022-09-25T13:34:01.621Z,50.99
2022-09-25T13:36:39.655Z,52.31
2022-09-25T13:39:54.657Z,52.28
2022-09-25T13:42:35.460Z,52.89
2022-09-25T13:45:37.637Z,52.93
2022-09-25T13:48:35.930Z,51.95
2022-09-25T13:51:18.723Z,52.24
2022-09-25T13:54:04.068Z,52.63
2022-09-25T13:56:34.494Z,52.58
2022-09-25T13:59:21.085Z,53.52
2022-09-25T14:01:57.535Z,53.07
2022-09-25T14:04:37.843Z,53.71
2022-09-25T14:07:19.663Z,53.97
2022-09-25T14:09:51.833Z,53.98
2022-09-25T14:12:44.324Z,53.27
2022-09-25T14:15:32.640Z,53.99
2022-09-25T14:18:03.525Z,53.58
2022-09-25T14:20:38.631Z,53.74
2022-09-25T14:23:14.395Z,54.20
2022-09-25T14:25:47.094Z,52.96
2022-09-25T14:28:25.684Z,52.81
2022-09-25T14:31:22.422Z,53.29
2022-09-25T14:34:12.704Z,54.19
2022-09-25T14:37:18.113Z,54.93
2022-09-25T14:40:19.327Z,56.18
2022-09-25T14:43:13.669Z,58.27
2022-09-25T14:46:18.941Z,57.71
2022-09-25T14:48:52.479Z,58.67
2022-09-25T14:51:49.260Z,57.50
2022-09-25T14:54:20.993Z,58.13
2022-09-25T14:56:55.055Z,58.33
2022-09-25T14:59:40.063Z,60.84
2022-09-25T15:02:22.950Z,58.11
2022-09-25T15:04:51.467Z,55.41
2022-09-25T15:07:23.800Z,56.46
2022-09-25T15:09:55.647Z,54.85
2022-09-25T15:12:36.748Z,54.39
2022-09-25T15:15:13.036Z,55.25
2022-09-25T15:17:58.171Z,55.06
2022-09-25T15:20:32.574Z,56.87
2022-09-25T15:23:09.122Z,55.60
2022-09-25T15:25:43.473Z,58.06
2022-09-25T15:28:24.838Z,58.13
2022-09-25T15:31:01.039Z,58.08
2022-09-25T15:33:31.615Z,56.98
2022-09-25T15:36:01.965Z,58.50
2022-09-25T15:38:37.760Z,59.82
2022-09-25T15:41:12.787Z,56.26
2022-09-25T15:43:40.317Z,54.67
2022-09-25T15:46:07.792Z,54.17
2022-09-25T15:48:41.028Z,54.54
2022-09-25T15:51:20.642Z,54.31
2022-09-25T15:54:00.477Z,54.29
2022-09-25T15:56:50.718Z,52.42
2022-09-25T15:59:28.421Z,55.17
2022-09-25T16:02:14.238Z,52.47
2022-09-25T16:04:52.105Z,52.42
2022-09-25T16:07:34.173Z,51.95
2022-09-25T16:10:09.508Z,51.18
2022-09-25T16:12:46.805Z,50.37
2022-09-25T16:15:32.378Z,52.12
2022-09-25T16:18:19.757Z,51.76
2022-09-25T16:20:53.535Z,59.19
2022-09-25T16:23:30.167Z,59.21
2022-09-25T16:26:00.677Z,64.89
2022-09-25T16:28:30.933Z,68.39
2022-09-25T16:31:05.346Z,75.47
2022-09-25T16:33:40.119Z,77.66
2022-09-25T16:36:17.720Z,79.91
2022-09-25T16:39:04.501Z,82.43
2022-09-25T16:41:33.224Z,81.25
2022-09-25T16:44:15.270Z,84.60
2022-09-25T16:47:03.556Z,81.35
2022-09-25T16:49:34.288Z,81.71
2022-09-25T16:52:05.927Z,84.56
2022-09-25T16:54:33.935Z,82.76
2022-09-25T16:57:02.788Z,82.80
2022-09-25T16:59:30.792Z,84.91
2022-09-25T17:02:02.443Z,87.60
2022-09-25T17:04:31.361Z,86.31
2022-09-25T17:07:01.897Z,88.60
2022-09-25T17:09:29.588Z,89.07
2022-09-25T17:12:07.892Z,89.22
2022-09-25T17:14:36.375Z,87.10
2022-09-25T17:17:05.624Z,90.85
2022-09-25T17:20:06.008Z,93.60
2022-09-25T17:22:39.505Z,92.22
2022-09-25T17:25:38.685Z,97.65
2022-09-25T17:28:32.655Z,94.43
2022-09-25T17:31:31.011Z,97.06
2022-09-25T17:34:30.767Z,98.79
2022-09-25T17:36:58.449Z,94.66
2022-09-25T17:39:26.560Z,97.40
2022-09-25T17:41:54.164Z,97.62
2022-09-25T17:44:24.267Z,97.54
2022-09-25T17:46:55.907Z,96.73
2022-09-25T17:49:24.626Z,97.63
2022-09-25T17:51:55.386Z,100.00
2022-09-25T17:54:23.958Z,100.00
2022-09-25T17:56:51.519Z,99.77
2022-09-25T17:59:19.237Z,100.00
2022-09-25T18:01:47.169Z,94.81
2022-09-25T18:04:23.953Z,100.00
2022-09-25T18:06:52.298Z,98.71
2022-09-25T18:09:19.999Z,99.49
2022-09-25T18:11:47.571Z,99.48
2022-09-25T18:14:19.047Z,100.00
2022-09-25T18:16:46.899Z,100.00
2022-09-25T18:19:38.861Z,100.00
2022-09-25T18:22:19.726Z,100.00
2022-09-25T18:24:53.022Z,100.00
2022-09-25T18:27:21.309Z,100.00
2022-09-25T18:29:48.878Z,100.00
2022-09-25T18:32:16.593Z,100.00
2022-09-25T18:34:44.150Z,100.00
2022-09-25T18:37:12.183Z,100.00
2022-09-25T18:39:39.646Z,100.00
2022-09-25T18:42:07.498Z,100.00
2022-09-25T18:44:41.926Z,100.00
2022-09-25T18:47:11.295Z,100.00
2022-09-25T18:49:42.663Z,100.00
2022-09-25T18:52:11.875Z,99.85
2022-09-25T18:54:42.560Z,100.00
2022-09-25T18:57:12.335Z,100.00
2022-09-25T18:59:40.700Z,100.00
2022-09-25T19:02:23.702Z,100.00
2022-09-25T19:04:55.137Z,100.00
2022-09-25T19:07:24.462Z,100.00
2022-09-25T19:09:53.113Z,100.00
2022-09-25T19:12:21.537Z,100.00
2022-09-25T19:14:49.071Z,100.00
2022-09-25T19:17:19.191Z,100.00
2022-09-25T19:19:46.710Z,100.00
2022-09-25T19:22:19.451Z,100.00
2022-09-25T19:24:48.652Z,100.00
2022-09-25T19:27:17.595Z,100.00
2022-09-25T19:29:51.321Z,100.00
2022-09-25T19:32:19.538Z,100.00
2022-09-25T19:34:47.535Z,100.00
2022-09-25T19:37:15.506Z,100.00
2022-09-25T19:40:01.262Z,100.00
2022-09-25T19:42:36.587Z,100.00
2022-09-25T19:45:04.930Z,100.00
2022-09-25T19:47:32.461Z,100.00
2022-09-25T19:50:00.242Z,100.00
2022-09-25T19:52:27.969Z,100.00
2022-09-25T19:54:55.667Z,100.00
2022-09-25T19:57:23.491Z,100.00
2022-09-25T19:59:51.177Z,100.00
2022-09-25T20:02:18.701Z,100.00
2022-09-25T20:04:48.571Z,100.00
2022-09-25T20:07:17.184Z,100.00
2022-09-25T20:09:44.977Z,100.00
2022-09-25T20:12:13.691Z,100.00
2022-09-25T20:14:41.256Z,100.00
2022-09-25T20:17:12.276Z,100.00
2022-09-25T20:19:40.178Z,100.00
2022-09-25T20:22:09.867Z,100.00
2022-09-25T20:24:37.579Z,100.00
2022-09-25T20:27:08.776Z,100.00
2022-09-25T20:29:38.734Z,100.00
2022-09-25T20:32:09.412Z,100.00
2022-09-25T20:34:37.084Z,100.00
2022-09-25T20:37:04.904Z,100.00
2022-09-25T20:39:32.609Z,100.00
2022-09-25T20:42:02.765Z,100.00
2022-09-25T20:44:30.671Z,100.00
2022-09-25T20:46:58.599Z,100.00
2022-09-25T20:49:26.011Z,100.00
2022-09-25T20:51:53.700Z,100.00
2022-09-25T20:54:25.559Z,100.00
2022-09-25T20:56:53.495Z,100.00
2022-09-25T20:59:22.290Z,100.00
2022-09-25T21:01:50.149Z,100.00
2022-09-25T21:04:19.198Z,100.00
2022-09-25T21:06:46.716Z,100.00
2022-09-25T21:09:21.082Z,100.00
2022-09-25T21:11:52.667Z,100.00
2022-09-25T21:14:23.185Z,100.00
2022-09-25T21:16:52.187Z,100.00
2022-09-25T21:19:21.684Z,100.00
2022-09-25T21:21:49.492Z,100.00
2022-09-25T21:24:19.335Z,100.00
2022-09-25T21:26:47.212Z,100.00
2022-09-25T21:29:16.664Z,100.00
2022-09-25T21:31:49.344Z,100.00
2022-09-25T21:34:18.085Z,100.00
2022-09-25T21:36:47.075Z,100.00
2022-09-25T21:39:14.999Z,100.00
2022-09-25T21:41:43.068Z,100.00
2022-09-25T21:44:16.008Z,100.00
2022-09-25T21:46:44.175Z,100.00
2022-09-25T21:49:21.860Z,100.00
2022-09-25T21:51:49.904Z,100.00
2022-09-25T21:54:17.781Z,100.00
2022-09-25T21:56:45.465Z,100.00
2022-09-25T21:59:13.444Z,100.00
2022-09-25T22:01:41.741Z,100.00
2022-09-25T22:04:13.050Z,100.00
2022-09-25T22:06:44.639Z,100.00
2022-09-25T22:09:15.887Z,100.00
2022-09-25T22:11:43.578Z,100.00
2022-09-25T22:14:15.842Z,100.00
2022-09-25T22:16:46.489Z,100.00
2022-09-25T22:19:18.203Z,100.00
2022-09-25T22:21:47.748Z,100.00
2022-09-25T22:24:16.379Z,100.00
2022-09-25T22:26:46.030Z,100.00
2022-09-25T22:29:14.434Z,100.00
2022-09-25T22:31:45.115Z,100.00
2022-09-25T22:34:25.798Z,100.00
2022-09-25T22:36:59.125Z,100.00
2022-09-25T22:39:29.180Z,100.00
2022-09-25T22:41:57.111Z,100.00
2022-09-25T22:44:25.609Z,100.00
2022-09-25T22:46:53.083Z,100.00
2022-09-25T22:49:20.663Z,100.00
2022-09-25T22:51:48.195Z,100.00
2022-09-25T22:54:16.139Z,100.00
2022-09-25T22:56:44.521Z,100.00
2022-09-25T22:59:16.482Z,100.00
2022-09-25T23:01:54.142Z,100.00
2022-09-25T23:04:24.412Z,100.00
2022-09-25T23:06:52.679Z,100.00
2022-09-25T23:09:23.184Z,100.00
2022-09-25T23:11:50.656Z,100.00
2022-09-25T23:14:23.769Z,100.00
2022-09-25T23:16:54.651Z,100.00
2022-09-25T23:19:22.670Z,100.00
2022-09-25T23:21:52.224Z,100.00
2022-09-25T23:24:20.767Z,100.00
2022-09-25T23:26:48.564Z,100.00
2022-09-25T23:29:18.152Z,100.00
2022-09-25T23:31:47.480Z,100.00
2022-09-25T23:34:15.591Z,100.00
2022-09-25T23:36:43.178Z,100.00
2022-09-25T23:39:15.951Z,100.00
2022-09-25T23:41:43.555Z,100.00
2022-09-25T23:44:11.688Z,100.00
2022-09-25T23:46:41.196Z,100.00
2022-09-25T23:49:09.485Z,100.00
2022-09-25T23:51:38.019Z,100.00
2022-09-25T23:54:05.546Z,100.00
2022-09-25T23:56:34.599Z,100.00
2022-09-25T23:59:02.703Z,100.00
